aviador You're here:

PAWS Decoded Metar

WASILLA in AK, USA
Report Time2018-07-18 09:56:00
UTC Time2018-07-18 10:58:08
Flight Rules vfr VFR
WindCalm
Visibility9999 m
Phenomena:N/A
Clouds:N/A
Expected CloudBase > 800 ft AGL from Temp-Dew spread
CeilingNone
Temp11°C (ISA -3)
Dew Point09°C (88% RH)
AAT10.8°C
QNH1021 hPa
Density Alt-157 ft
Elevation351 ft
Report Wrong Elevation
Raw Report
PAWS 180956Z AUTO 00000KT 10SM CLR 11/09 A3014 RMK AO2 SLP219
T01060089=

Extra information for PAWS:More info

Metar Taf Metar & Taf Last 4 Metars F.Rules Stats Wind Profile Meteogram Temp Stats Airport Information Weather charts Add Link Nearby VenuesMetar ALERT Operation Metar Decoded Social comments

AIRNAV info for PAWS